Ruidoso, New Mexico
Current Conditions -  °F | °C
As of 2:55 PM on Saturday 25 Oct 2014 (Local Time) from KSRR Reporting Station
Clear Clear  
Wind Chill: 73°   Ceiling: Unl
Heat Index: 73°   Visibility: 10mi
Dew Point: 37°   Wind: 7mph
Humidity: 27%   Direction: 340°NNW
Pressure: 30.33"   Gusts: NA
Location:  33.45°N, 105.52°W
Report Text: KSRR 252055Z AUTO 34006KT 040V050 10SM CLR 23/03 A3033 RMK AO2
Loading
Personal Weather Stations






























Interactive Weather Map New forecast layout! Learn more

10-Day Weather Forecast

Advertisements
Track Severe Weather on mobile